Terminal Aerodrome Forecast
Issued by NWS

Home | Current Version | Previous Version | Text Only | Print | Product List | Glossary On
Versions: 1 2 3 4 5 6 7 8 9 10 11 12 13 14 15 16 17 18 19 20 21 22
000
FTUS46 KLOX 261134
TAFBUR
TAF
KBUR 261134Z 2612/2712 VRB03KT P6SM BKN016
     FM261900 18008KT P6SM SCT020 SCT250
     FM270400 VRB03KT P6SM BKN020
     FM270900 16005KT P6SM OVC015=

USA.gov is the U.S. government's official web portal to all federal, state and local government web resources and services.